Time;durP1;ratioP1;P1;durP2;ratioP2;P2;SDS_P1;SDS_P2;PMS_P1;PMS_P2;Temp;Humidity;BMP_temperature;BMP_pressure;BME280_temperature;BME280_humidity;BME280_pressure;Samples;Min_cycle;Max_cycle;Signal;HPM_P1;HPM_P2
2023/01/08 00:01:58;;;;;;;;;;;1.70;99.90;;;;;;5049971;28;19936;-72
2023/01/08 00:04:27;;;;;;;;;;;1.80;99.90;;;;;;5066832;28;19931;-72
2023/01/08 00:06:57;;;;;;;;;;;1.80;99.90;;;;;;5049076;28;19971;-72
2023/01/08 00:09:27;;;;;;;;;;;1.70;99.90;;;;;;5034550;28;19932;-72
2023/01/08 00:11:55;;;;;;;;;;;1.70;99.90;;;;;;5053651;28;19943;-72
2023/01/08 00:14:23;;;;;;;;;;;1.70;99.90;;;;;;5034902;28;19925;-72
2023/01/08 00:16:51;;;;;;;;;;;1.60;99.90;;;;;;5039978;28;19982;-71
2023/01/08 00:19:21;;;;;;;;;;;1.50;99.90;;;;;;5040488;28;20464;-72
2023/01/08 00:21:50;;;;;;;;;;;1.50;99.90;;;;;;5052045;28;20307;-72
2023/01/08 00:24:20;;;;;;;;;;;1.50;99.90;;;;;;5043860;28;20482;-72
2023/01/08 00:26:50;;;;;;;;;;;1.40;99.90;;;;;;5026138;28;19924;-72
2023/01/08 00:29:21;;;;;;;;;;;1.40;99.90;;;;;;5034215;28;19925;-72
2023/01/08 00:31:50;;;;;;;;;;;1.40;99.90;;;;;;5033571;28;19929;-72
2023/01/08 00:34:19;;;;;;;;;;;1.40;99.90;;;;;;5031368;28;20385;-72
2023/01/08 00:36:47;;;;;;;;;;;1.40;99.90;;;;;;5062783;28;19936;-71
2023/01/08 00:39:15;;;;;;;;;;;1.50;99.90;;;;;;5023500;28;19929;-72
2023/01/08 00:41:44;;;;;;;;;;;1.50;99.90;;;;;;5033909;28;19928;-72
2023/01/08 00:44:12;;;;;;;;;;;1.40;99.90;;;;;;5039888;28;19931;-72
2023/01/08 00:46:41;;;;;;;;;;;1.40;99.90;;;;;;5041547;28;20514;-72
2023/01/08 00:49:10;;;;;;;;;;;1.40;99.90;;;;;;5035271;28;19931;-72
2023/01/08 00:51:38;;;;;;;;;;;1.40;99.90;;;;;;5036769;28;19971;-72
2023/01/08 00:54:08;;;;;;;;;;;1.40;99.90;;;;;;5051325;28;19929;-72
2023/01/08 00:56:36;;;;;;;;;;;1.40;99.90;;;;;;5063899;28;19924;-73
2023/01/08 00:59:05;;;;;;;;;;;1.40;99.90;;;;;;5039952;28;19924;-72
2023/01/08 01:01:33;;;;;;;;;;;1.40;99.90;;;;;;5040994;28;19935;-73
2023/01/08 01:04:02;;;;;;;;;;;1.50;99.90;;;;;;5045018;28;20042;-72
2023/01/08 01:06:30;;;;;;;;;;;1.40;99.90;;;;;;5039800;28;20538;-72
2023/01/08 01:08:59;;;;;;;;;;;1.40;99.90;;;;;;5039772;28;19959;-72
2023/01/08 01:11:27;;;;;;;;;;;1.40;99.90;;;;;;5055250;28;20441;-72
2023/01/08 01:13:56;;;;;;;;;;;1.40;99.90;;;;;;5037058;28;19931;-73
2023/01/08 01:16:24;;;;;;;;;;;1.40;99.90;;;;;;5062417;28;19924;-72
2023/01/08 01:18:54;;;;;;;;;;;1.40;99.90;;;;;;5039444;28;19937;-72
2023/01/08 01:21:25;;;;;;;;;;;1.40;99.90;;;;;;5036952;28;20402;-72
2023/01/08 01:23:57;;;;;;;;;;;1.30;99.90;;;;;;5054121;28;19929;-73
2023/01/08 01:26:26;;;;;;;;;;;1.30;99.90;;;;;;5042595;28;19935;-72
2023/01/08 01:28:55;;;;;;;;;;;1.30;99.90;;;;;;5059451;28;19929;-72
2023/01/08 01:31:24;;;;;;;;;;;1.30;99.90;;;;;;5053324;28;20012;-72
2023/01/08 01:33:52;;;;;;;;;;;1.30;99.90;;;;;;5030080;28;19998;-72
2023/01/08 01:36:25;;;;;;;;;;;1.20;99.90;;;;;;5042751;28;20444;-72
2023/01/08 01:38:54;;;;;;;;;;;1.30;99.90;;;;;;5046699;28;19931;-72
2023/01/08 01:41:25;;;;;;;;;;;1.20;99.90;;;;;;5054289;28;19925;-72
2023/01/08 01:43:55;;;;;;;;;;;1.30;99.90;;;;;;5032531;28;20447;-72
2023/01/08 01:46:37;;;;;;;;;;;1.30;99.90;;;;;;5048978;28;19928;-72
2023/01/08 01:49:10;;;;;;;;;;;1.30;99.90;;;;;;5040036;28;19959;-71
2023/01/08 01:51:46;;;;;;;;;;;1.30;99.90;;;;;;5035144;28;19929;-73
2023/01/08 01:54:16;;;;;;;;;;;1.30;99.90;;;;;;5055909;28;20448;-70
2023/01/08 01:56:45;;;;;;;;;;;1.30;99.90;;;;;;5043899;28;20391;-71
2023/01/08 01:59:14;;;;;;;;;;;1.30;99.90;;;;;;5037730;28;20003;-71
2023/01/08 02:01:43;;;;;;;;;;;1.30;99.90;;;;;;5038377;28;20403;-71
2023/01/08 02:04:12;;;;;;;;;;;1.20;99.90;;;;;;5041512;28;20387;-71
2023/01/08 02:06:56;;;;;;;;;;;1.20;99.90;;;;;;5055600;28;20481;-70
2023/01/08 02:09:28;;;;;;;;;;;1.20;99.90;;;;;;5049629;28;20014;-70
2023/01/08 02:12:15;;;;;;;;;;;1.20;99.90;;;;;;5054723;28;19939;-71
2023/01/08 02:14:44;;;;;;;;;;;1.20;99.90;;;;;;5038284;28;19967;-71
2023/01/08 02:17:16;;;;;;;;;;;1.20;99.90;;;;;;5038132;28;20041;-70
2023/01/08 02:19:50;;;;;;;;;;;1.20;99.90;;;;;;5041613;28;19925;-70
2023/01/08 02:22:41;;;;;;;;;;;1.20;99.90;;;;;;5054036;28;19931;-70
2023/01/08 02:25:13;;;;;;;;;;;1.20;99.90;;;;;;5051769;28;20468;-71
2023/01/08 02:27:44;;;;;;;;;;;1.20;99.90;;;;;;5046486;28;20019;-70
2023/01/08 02:30:13;;;;;;;;;;;1.10;99.90;;;;;;5041082;28;19929;-72
2023/01/08 02:32:42;;;;;;;;;;;1.10;99.90;;;;;;5051350;28;20387;-70
2023/01/08 02:35:11;;;;;;;;;;;1.10;99.90;;;;;;5049752;28;20452;-70
2023/01/08 02:37:41;;;;;;;;;;;1.10;99.90;;;;;;5045243;28;20116;-71
2023/01/08 02:40:18;;;;;;;;;;;1.00;99.90;;;;;;5044236;28;19963;-71
2023/01/08 02:42:53;;;;;;;;;;;1.10;99.90;;;;;;5030064;28;19980;-71
2023/01/08 02:45:34;;;;;;;;;;;1.00;99.90;;;;;;5046081;28;20395;-71
2023/01/08 02:48:10;;;;;;;;;;;0.90;99.90;;;;;;5041116;28;20023;-72
2023/01/08 02:50:52;;;;;;;;;;;0.90;99.90;;;;;;5053621;28;20763;-71
2023/01/08 02:53:29;;;;;;;;;;;0.90;99.90;;;;;;5057703;28;19931;-70
2023/01/08 02:56:01;;;;;;;;;;;0.90;99.90;;;;;;5040978;28;19933;-71
2023/01/08 02:58:31;;;;;;;;;;;0.90;99.90;;;;;;5043127;28;19932;-70
2023/01/08 03:01:02;;;;;;;;;;;1.00;99.90;;;;;;5043807;28;20410;-71
2023/01/08 03:03:32;;;;;;;;;;;1.10;99.90;;;;;;5044404;28;20452;-70
2023/01/08 03:06:03;;;;;;;;;;;1.10;99.90;;;;;;5070949;28;19939;-72
2023/01/08 03:08:38;;;;;;;;;;;1.20;99.90;;;;;;5049384;28;20445;-71
2023/01/08 03:11:09;;;;;;;;;;;1.20;99.90;;;;;;5058316;28;19924;-71
2023/01/08 03:14:01;;;;;;;;;;;1.20;99.90;;;;;;5043131;28;20024;-71
2023/01/08 03:16:34;;;;;;;;;;;1.10;99.90;;;;;;5036917;28;19969;-72
2023/01/08 03:19:21;;;;;;;;;;;1.10;99.90;;;;;;5059384;28;20289;-71
2023/01/08 03:21:51;;;;;;;;;;;1.10;99.90;;;;;;5026786;28;20390;-71
2023/01/08 03:24:24;;;;;;;;;;;1.20;99.90;;;;;;5045313;28;19964;-70
2023/01/08 03:26:56;;;;;;;;;;;1.20;99.90;;;;;;5043334;28;20016;-70
2023/01/08 03:29:25;;;;;;;;;;;1.20;99.90;;;;;;5056643;28;19931;-71
2023/01/08 03:31:57;;;;;;;;;;;1.20;99.90;;;;;;5053702;28;19928;-71
2023/01/08 03:34:27;;;;;;;;;;;1.30;99.90;;;;;;5046358;28;19928;-71
2023/01/08 03:36:58;;;;;;;;;;;1.40;99.90;;;;;;5045675;28;19931;-71
2023/01/08 03:39:48;;;;;;;;;;;1.50;99.90;;;;;;5048709;28;20118;-71
2023/01/08 03:42:18;;;;;;;;;;;1.50;99.90;;;;;;5058938;28;20003;-71
2023/01/08 03:44:47;;;;;;;;;;;1.60;99.90;;;;;;5056847;28;19986;-72
2023/01/08 03:47:17;;;;;;;;;;;1.60;99.90;;;;;;5042999;28;20334;-70
2023/01/08 03:49:47;;;;;;;;;;;1.70;99.90;;;;;;5036466;28;19928;-71
2023/01/08 03:52:23;;;;;;;;;;;1.70;99.90;;;;;;5049626;28;19929;-71
2023/01/08 03:54:52;;;;;;;;;;;1.70;99.90;;;;;;5059316;28;20019;-71
2023/01/08 03:57:21;;;;;;;;;;;1.70;99.90;;;;;;5048174;28;19924;-72
2023/01/08 03:59:50;;;;;;;;;;;1.70;99.90;;;;;;5065973;28;19943;-70
2023/01/08 04:02:20;;;;;;;;;;;1.60;99.90;;;;;;5055365;28;20292;-71
2023/01/08 04:04:49;;;;;;;;;;;1.40;99.90;;;;;;5043261;28;19967;-73
2023/01/08 04:07:19;;;;;;;;;;;1.30;99.90;;;;;;5047685;28;19932;-71
2023/01/08 04:09:48;;;;;;;;;;;1.20;99.90;;;;;;5044150;28;20012;-71
2023/01/08 04:12:17;;;;;;;;;;;1.00;99.90;;;;;;5039088;28;19928;-71
2023/01/08 04:14:46;;;;;;;;;;;1.00;99.90;;;;;;5041234;28;20403;-73
2023/01/08 04:17:15;;;;;;;;;;;0.90;99.90;;;;;;5059218;28;20512;-71
2023/01/08 04:19:45;;;;;;;;;;;0.90;99.90;;;;;;5043640;28;20019;-71
2023/01/08 04:22:14;;;;;;;;;;;1.00;99.90;;;;;;5055801;28;19950;-71
2023/01/08 04:24:44;;;;;;;;;;;0.90;99.90;;;;;;5017864;28;19925;-71
2023/01/08 04:27:13;;;;;;;;;;;1.00;99.90;;;;;;5048510;28;20207;-72
2023/01/08 04:29:42;;;;;;;;;;;1.00;99.90;;;;;;5047425;28;19978;-70
2023/01/08 04:32:12;;;;;;;;;;;1.00;99.90;;;;;;5016578;28;19957;-71
2023/01/08 04:34:41;;;;;;;;;;;1.00;99.90;;;;;;5045343;28;19978;-71
2023/01/08 04:37:10;;;;;;;;;;;1.00;99.90;;;;;;5043223;28;19932;-71
2023/01/08 04:39:40;;;;;;;;;;;1.00;99.90;;;;;;5061450;28;20350;-71
2023/01/08 04:42:09;;;;;;;;;;;1.00;99.90;;;;;;5031887;28;20028;-71
2023/01/08 04:44:38;;;;;;;;;;;1.10;99.90;;;;;;5053473;28;19990;-71
2023/01/08 04:47:07;;;;;;;;;;;1.10;99.90;;;;;;5040801;28;19925;-71
2023/01/08 04:49:36;;;;;;;;;;;1.10;99.90;;;;;;5050642;28;19925;-71
2023/01/08 04:52:06;;;;;;;;;;;1.20;99.90;;;;;;5041687;28;19925;-71
2023/01/08 04:54:35;;;;;;;;;;;1.20;99.90;;;;;;5046662;28;19924;-71
2023/01/08 04:57:04;;;;;;;;;;;1.20;99.90;;;;;;5040226;28;20019;-71
2023/01/08 04:59:33;;;;;;;;;;;1.20;99.90;;;;;;5057760;28;19925;-71
2023/01/08 05:02:03;;;;;;;;;;;1.20;99.90;;;;;;5036023;28;19932;-71
2023/01/08 05:04:35;;;;;;;;;;;1.20;99.90;;;;;;5058678;28;19931;-71
2023/01/08 05:07:05;;;;;;;;;;;1.20;99.90;;;;;;5060942;28;19963;-71
2023/01/08 05:09:33;;;;;;;;;;;1.20;99.90;;;;;;5041017;28;19929;-71
2023/01/08 05:12:03;;;;;;;;;;;1.20;99.90;;;;;;5033485;28;19928;-71
2023/01/08 05:14:32;;;;;;;;;;;1.20;99.90;;;;;;5033199;28;20056;-71
2023/01/08 05:17:03;;;;;;;;;;;1.20;99.90;;;;;;5065067;28;19929;-71
2023/01/08 05:19:33;;;;;;;;;;;1.30;99.90;;;;;;5061005;28;19925;-71
2023/01/08 05:22:05;;;;;;;;;;;1.20;99.90;;;;;;5049672;28;19960;-71
2023/01/08 05:24:35;;;;;;;;;;;1.30;99.90;;;;;;5042116;28;20007;-69
2023/01/08 05:27:03;;;;;;;;;;;1.30;99.90;;;;;;5042152;28;19929;-72
2023/01/08 05:29:34;;;;;;;;;;;1.30;99.90;;;;;;5041589;28;19960;-73
2023/01/08 05:32:03;;;;;;;;;;;1.30;99.90;;;;;;5034745;28;19929;-71
2023/01/08 05:34:32;;;;;;;;;;;1.30;99.90;;;;;;5043632;28;20019;-71
2023/01/08 05:37:01;;;;;;;;;;;1.30;99.90;;;;;;5044057;28;19924;-70
2023/01/08 05:39:30;;;;;;;;;;;1.30;99.90;;;;;;5028437;28;20027;-70
2023/01/08 05:41:59;;;;;;;;;;;1.30;99.90;;;;;;5041525;28;20018;-71
2023/01/08 05:44:28;;;;;;;;;;;1.30;99.90;;;;;;5040687;28;19936;-70
2023/01/08 05:46:57;;;;;;;;;;;1.40;99.90;;;;;;5039842;28;19932;-72
2023/01/08 05:49:26;;;;;;;;;;;1.40;99.90;;;;;;5066640;28;19925;-71
2023/01/08 05:51:56;;;;;;;;;;;1.40;99.90;;;;;;5056276;28;19978;-71
2023/01/08 05:54:24;;;;;;;;;;;1.40;99.90;;;;;;5042932;28;19925;-71
2023/01/08 05:56:53;;;;;;;;;;;1.40;99.90;;;;;;5027652;28;19932;-71
2023/01/08 05:59:22;;;;;;;;;;;1.40;99.90;;;;;;5051786;28;19925;-71
2023/01/08 06:01:52;;;;;;;;;;;1.30;99.90;;;;;;5052302;28;20019;-71
2023/01/08 06:04:21;;;;;;;;;;;1.30;99.90;;;;;;5021496;28;19932;-70
2023/01/08 06:06:51;;;;;;;;;;;1.40;99.90;;;;;;5050796;28;20015;-72
2023/01/08 06:09:21;;;;;;;;;;;1.40;99.90;;;;;;5055186;28;20177;-72
2023/01/08 06:11:51;;;;;;;;;;;1.40;99.90;;;;;;5062037;28;19940;-71
2023/01/08 06:14:20;;;;;;;;;;;1.40;99.90;;;;;;5043524;28;19959;-71
2023/01/08 06:16:49;;;;;;;;;;;1.50;99.90;;;;;;5044402;28;19929;-71
2023/01/08 06:19:18;;;;;;;;;;;1.50;99.90;;;;;;5028213;28;19925;-71
2023/01/08 06:21:47;;;;;;;;;;;1.50;99.90;;;;;;5055232;28;19928;-70
2023/01/08 06:24:17;;;;;;;;;;;1.50;99.90;;;;;;5067699;28;19931;-70
2023/01/08 06:26:46;;;;;;;;;;;1.40;99.90;;;;;;5051330;28;19925;-72
2023/01/08 06:29:15;;;;;;;;;;;1.40;99.90;;;;;;5043793;28;19978;-71
2023/01/08 06:31:44;;;;;;;;;;;1.40;99.90;;;;;;5038640;28;20393;-71
2023/01/08 06:34:14;;;;;;;;;;;1.40;99.90;;;;;;5045528;28;19924;-70
2023/01/08 06:36:43;;;;;;;;;;;1.40;99.90;;;;;;5047719;28;20116;-70
2023/01/08 06:39:13;;;;;;;;;;;1.40;99.90;;;;;;5029252;28;19931;-70
2023/01/08 06:41:42;;;;;;;;;;;1.50;99.90;;;;;;5039411;28;20010;-71
2023/01/08 06:44:12;;;;;;;;;;;1.50;99.90;;;;;;5043516;28;19964;-72
2023/01/08 06:46:40;;;;;;;;;;;1.50;99.90;;;;;;5049214;28;19932;-70
2023/01/08 06:49:10;;;;;;;;;;;1.50;99.90;;;;;;5066310;28;19928;-70
2023/01/08 06:51:39;;;;;;;;;;;1.50;99.90;;;;;;5040647;28;19964;-70
2023/01/08 06:54:08;;;;;;;;;;;1.60;99.90;;;;;;5048162;28;19924;-71
2023/01/08 06:56:37;;;;;;;;;;;1.60;99.90;;;;;;5048256;28;19970;-71
2023/01/08 06:59:07;;;;;;;;;;;1.60;99.90;;;;;;5047524;28;19947;-71
2023/01/08 07:01:36;;;;;;;;;;;1.60;99.90;;;;;;5038418;28;19925;-70
2023/01/08 07:04:05;;;;;;;;;;;1.60;99.90;;;;;;5058070;28;19924;-71
2023/01/08 07:06:34;;;;;;;;;;;1.60;99.90;;;;;;5044951;28;20129;-71
2023/01/08 07:09:03;;;;;;;;;;;1.70;99.90;;;;;;5042105;28;19925;-71
2023/01/08 07:11:33;;;;;;;;;;;1.70;99.90;;;;;;5043997;28;19928;-70
2023/01/08 07:14:04;;;;;;;;;;;1.70;99.90;;;;;;5052732;28;20041;-70
2023/01/08 07:16:34;;;;;;;;;;;1.70;99.90;;;;;;5041964;28;19931;-71
2023/01/08 07:19:03;;;;;;;;;;;1.70;99.90;;;;;;5069123;28;20020;-71
2023/01/08 07:21:33;;;;;;;;;;;1.70;99.90;;;;;;5040509;28;19925;-72
2023/01/08 07:24:03;;;;;;;;;;;1.70;99.90;;;;;;5051792;28;19925;-71
2023/01/08 07:26:32;;;;;;;;;;;1.80;99.90;;;;;;5064253;28;19929;-71
2023/01/08 07:29:02;;;;;;;;;;;1.80;99.90;;;;;;5044908;28;20011;-70
2023/01/08 07:31:31;;;;;;;;;;;1.80;99.90;;;;;;5035151;28;19951;-71
2023/01/08 07:34:00;;;;;;;;;;;1.90;99.90;;;;;;5040928;28;19933;-70
2023/01/08 07:36:29;;;;;;;;;;;1.90;99.90;;;;;;5056177;28;19924;-71
2023/01/08 07:38:58;;;;;;;;;;;1.90;99.90;;;;;;5057258;28;19925;-71
2023/01/08 07:41:27;;;;;;;;;;;1.90;99.90;;;;;;5036873;28;20024;-71
2023/01/08 07:43:57;;;;;;;;;;;1.90;99.90;;;;;;5035562;28;20469;-71
2023/01/08 07:46:29;;;;;;;;;;;1.90;99.90;;;;;;5056525;28;19937;-70
2023/01/08 07:48:59;;;;;;;;;;;1.90;99.90;;;;;;5038873;28;19975;-71
2023/01/08 07:51:28;;;;;;;;;;;1.90;99.90;;;;;;5054738;28;20318;-70
2023/01/08 07:53:58;;;;;;;;;;;2.00;99.90;;;;;;5033249;28;19995;-70
2023/01/08 07:56:27;;;;;;;;;;;2.00;99.90;;;;;;5047039;28;20375;-71
2023/01/08 07:58:57;;;;;;;;;;;2.00;99.90;;;;;;5042968;28;19968;-71
2023/01/08 08:01:26;;;;;;;;;;;2.00;99.90;;;;;;5053932;28;20023;-71
2023/01/08 08:03:55;;;;;;;;;;;2.00;99.90;;;;;;5034555;28;19929;-71
2023/01/08 08:06:25;;;;;;;;;;;2.10;99.90;;;;;;5039702;28;20294;-70
2023/01/08 08:08:55;;;;;;;;;;;2.10;99.90;;;;;;5051295;28;19929;-71
2023/01/08 08:11:25;;;;;;;;;;;2.10;99.90;;;;;;5064896;28;20015;-71
2023/01/08 08:13:54;;;;;;;;;;;2.20;99.90;;;;;;5038813;28;19978;-71
2023/01/08 08:16:23;;;;;;;;;;;2.20;99.90;;;;;;5070897;28;19947;-71
2023/01/08 08:18:53;;;;;;;;;;;2.20;99.90;;;;;;5041394;28;19990;-71
2023/01/08 08:21:22;;;;;;;;;;;2.30;99.90;;;;;;5042114;28;20407;-72
2023/01/08 08:23:52;;;;;;;;;;;2.30;99.90;;;;;;5055423;28;19925;-73
2023/01/08 08:26:21;;;;;;;;;;;2.40;99.90;;;;;;5017020;28;19929;-71
2023/01/08 08:28:50;;;;;;;;;;;2.40;99.90;;;;;;5054133;28;20553;-71
2023/01/08 08:31:19;;;;;;;;;;;2.40;99.90;;;;;;5039583;28;19925;-71
2023/01/08 08:33:48;;;;;;;;;;;2.50;99.90;;;;;;5056291;28;20027;-71
2023/01/08 08:36:17;;;;;;;;;;;2.50;99.90;;;;;;5054479;28;20441;-72
2023/01/08 08:38:46;;;;;;;;;;;2.60;99.90;;;;;;5041411;28;19935;-72
2023/01/08 08:41:16;;;;;;;;;;;2.60;99.90;;;;;;5061851;28;19925;-73
2023/01/08 08:43:46;;;;;;;;;;;2.60;99.90;;;;;;5062982;28;20458;-72
2023/01/08 08:46:19;;;;;;;;;;;2.70;99.90;;;;;;5055434;28;19964;-71
2023/01/08 08:48:48;;;;;;;;;;;2.70;99.90;;;;;;5034773;28;19936;-71
2023/01/08 08:51:18;;;;;;;;;;;2.70;99.90;;;;;;5051180;28;19925;-70
2023/01/08 08:53:47;;;;;;;;;;;2.70;99.90;;;;;;5034636;28;19925;-70
2023/01/08 08:56:16;;;;;;;;;;;2.70;99.90;;;;;;5033262;28;19960;-71
2023/01/08 08:58:49;;;;;;;;;;;2.70;99.90;;;;;;5059833;28;22477;-73
2023/01/08 09:01:18;;;;;;;;;;;2.80;99.90;;;;;;5035721;28;19931;-69
2023/01/08 09:03:48;;;;;;;;;;;2.80;99.90;;;;;;5046495;28;19925;-71
2023/01/08 09:06:20;;;;;;;;;;;2.90;99.90;;;;;;5050859;28;20019;-71
2023/01/08 09:09:00;;;;;;;;;;;2.90;99.90;;;;;;5055999;28;19925;-73
2023/01/08 09:12:27;;;;;;;;;;;3.00;99.90;;;;;;5046267;22;19948;-71
2023/01/08 09:14:57;;;;;;;;;;;3.10;99.90;;;;;;5026222;28;20055;-71
2023/01/08 09:17:28;;;;;;;;;;;3.10;99.90;;;;;;5030947;28;19936;-72
2023/01/08 09:19:57;;;;;;;;;;;3.20;99.90;;;;;;5027827;28;19932;-71
2023/01/08 09:22:27;;;;;;;;;;;3.30;99.90;;;;;;4992519;28;20372;-70
2023/01/08 09:24:57;;;;;;;;;;;3.30;99.90;;;;;;5021326;28;19932;-71
2023/01/08 09:27:28;;;;;;;;;;;3.40;99.90;;;;;;5009512;28;20411;-71
2023/01/08 09:29:57;;;;;;;;;;;3.50;99.90;;;;;;5034354;28;20289;-71
2023/01/08 09:32:28;;;;;;;;;;;3.60;99.90;;;;;;5021738;28;20443;-71
2023/01/08 09:35:00;;;;;;;;;;;3.60;99.90;;;;;;5013001;28;20331;-72
2023/01/08 09:37:29;;;;;;;;;;;3.70;99.90;;;;;;4997893;28;20348;-71
2023/01/08 09:39:58;;;;;;;;;;;3.70;99.90;;;;;;5013982;28;19951;-70
2023/01/08 09:42:28;;;;;;;;;;;3.70;99.90;;;;;;4996857;28;20008;-71
2023/01/08 09:45:03;;;;;;;;;;;3.70;99.90;;;;;;5003923;28;20455;-71
2023/01/08 09:51:12;;;;;;;;;;;3.70;99.90;;;;;;4989062;28;19928;-71
2023/01/08 09:53:42;;;;;;;;;;;3.80;99.90;;;;;;5008617;28;20316;-71
2023/01/08 09:56:15;;;;;;;;;;;3.90;99.90;;;;;;5015999;28;20058;-71
2023/01/08 09:58:45;;;;;;;;;;;3.90;99.90;;;;;;5009439;28;19925;-72
2023/01/08 10:01:15;;;;;;;;;;;4.00;99.90;;;;;;5001173;28;20758;-71
2023/01/08 10:03:46;;;;;;;;;;;4.00;99.90;;;;;;5005356;28;20020;-72
2023/01/08 10:06:16;;;;;;;;;;;4.00;99.90;;;;;;5025796;28;20597;-71
2023/01/08 10:08:45;;;;;;;;;;;4.10;99.90;;;;;;5025635;28;20445;-71
2023/01/08 10:11:16;;;;;;;;;;;4.10;99.90;;;;;;5008207;28;19960;-71
2023/01/08 10:13:49;;;;;;;;;;;4.10;99.90;;;;;;5014954;28;20407;-72
2023/01/08 10:16:25;;;;;;;;;;;4.10;99.90;;;;;;5003492;28;19933;-71
2023/01/08 10:18:59;;;;;;;;;;;4.10;99.90;;;;;;5016725;28;19929;-71
2023/01/08 10:21:29;;;;;;;;;;;4.10;99.90;;;;;;5003497;28;19933;-70
2023/01/08 10:23:59;;;;;;;;;;;4.10;99.90;;;;;;5014632;28;19925;-70
2023/01/08 10:26:30;;;;;;;;;;;4.20;99.90;;;;;;4992786;28;19932;-72
2023/01/08 10:29:08;;;;;;;;;;;4.20;99.90;;;;;;5025785;28;19972;-71
2023/01/08 10:31:44;;;;;;;;;;;4.30;99.90;;;;;;5005917;28;20388;-71
2023/01/08 10:34:43;;;;;;;;;;;4.30;99.90;;;;;;5009275;28;20380;-71
2023/01/08 10:37:24;;;;;;;;;;;4.40;99.90;;;;;;4994264;28;20384;-71
2023/01/08 10:39:55;;;;;;;;;;;4.70;99.90;;;;;;5019236;28;21661;-71
2023/01/08 10:42:25;;;;;;;;;;;5.00;99.90;;;;;;5007908;28;19929;-72
2023/01/08 10:44:57;;;;;;;;;;;5.10;99.90;;;;;;5012147;28;19933;-71
2023/01/08 10:47:29;;;;;;;;;;;5.30;99.90;;;;;;5029011;28;20005;-71
2023/01/08 10:49:59;;;;;;;;;;;5.60;99.90;;;;;;5012147;28;19987;-71
2023/01/08 10:52:32;;;;;;;;;;;5.70;99.90;;;;;;5010784;28;20451;-71
2023/01/08 10:55:19;;;;;;;;;;;6.00;99.90;;;;;;5008106;28;20587;-71
2023/01/08 10:57:58;;;;;;;;;;;6.10;99.90;;;;;;5008879;28;19975;-71
2023/01/08 11:00:32;;;;;;;;;;;6.40;99.90;;;;;;5007031;28;19944;-71
2023/01/08 11:03:18;;;;;;;;;;;6.50;99.90;;;;;;4993295;28;19934;-71
2023/01/08 11:05:48;;;;;;;;;;;6.60;99.90;;;;;;5010544;28;20396;-72
2023/01/08 11:08:20;;;;;;;;;;;6.50;99.90;;;;;;5004798;28;19925;-71
2023/01/08 11:10:57;;;;;;;;;;;6.40;99.90;;;;;;5007078;28;20447;-72
2023/01/08 11:13:26;;;;;;;;;;;6.40;99.90;;;;;;5010442;28;20300;-71
2023/01/08 11:16:01;;;;;;;;;;;6.30;99.90;;;;;;5004189;28;19934;-71
2023/01/08 11:18:30;;;;;;;;;;;6.20;99.90;;;;;;5024872;28;20736;-71
2023/01/08 11:21:07;;;;;;;;;;;6.20;99.90;;;;;;5005411;28;20448;-71
2023/01/08 11:23:37;;;;;;;;;;;6.10;99.90;;;;;;5005868;28;20564;-71
2023/01/08 11:26:13;;;;;;;;;;;6.00;99.90;;;;;;5008155;28;19930;-72
2023/01/08 11:28:43;;;;;;;;;;;6.00;99.90;;;;;;5008755;28;20372;-72
2023/01/08 11:31:14;;;;;;;;;;;6.00;99.90;;;;;;5021689;28;19933;-71
2023/01/08 11:33:43;;;;;;;;;;;6.00;99.90;;;;;;5009062;28;19925;-70
2023/01/08 11:36:28;;;;;;;;;;;6.00;99.90;;;;;;5009945;28;19931;-71
2023/01/08 11:38:57;;;;;;;;;;;6.00;99.90;;;;;;5008111;28;20015;-72
2023/01/08 11:41:42;;;;;;;;;;;6.00;99.90;;;;;;5005794;28;19952;-71
2023/01/08 11:44:18;;;;;;;;;;;5.90;99.90;;;;;;5024590;28;19926;-72
2023/01/08 11:46:49;;;;;;;;;;;6.00;99.90;;;;;;4985407;28;19932;-70
2023/01/08 11:49:22;;;;;;;;;;;6.00;99.90;;;;;;4996114;28;19965;-71
2023/01/08 11:52:00;;;;;;;;;;;6.00;99.90;;;;;;5007582;28;19973;-71
2023/01/08 11:54:47;;;;;;;;;;;6.00;99.90;;;;;;5024063;28;19976;-71
2023/01/08 11:57:19;;;;;;;;;;;6.00;99.90;;;;;;5013054;28;19930;-71
2023/01/08 12:00:11;;;;;;;;;;;6.00;99.90;;;;;;5008915;28;19929;-71
2023/01/08 12:03:04;;;;;;;;;;;6.00;99.90;;;;;;5008275;28;19976;-70
2023/01/08 12:06:04;;;;;;;;;;;6.10;99.90;;;;;;5009647;28;19933;-71
2023/01/08 12:09:09;;;;;;;;;;;6.10;99.90;;;;;;5017661;28;20016;-71
2023/01/08 12:11:41;;;;;;;;;;;6.20;99.90;;;;;;5012580;28;20004;-70
2023/01/08 12:14:18;;;;;;;;;;;6.20;99.90;;;;;;5012690;28;19925;-72
2023/01/08 12:16:56;;;;;;;;;;;6.30;99.90;;;;;;5025284;28;19957;-71
2023/01/08 12:19:30;;;;;;;;;;;6.30;99.90;;;;;;5026057;28;20021;-70
2023/01/08 12:22:27;;;;;;;;;;;6.40;99.90;;;;;;5002278;28;19934;-71
2023/01/08 12:25:06;;;;;;;;;;;6.40;99.90;;;;;;5003396;28;20024;-71
2023/01/08 12:27:58;;;;;;;;;;;6.40;99.90;;;;;;5007339;28;19925;-71
2023/01/08 12:30:44;;;;;;;;;;;6.40;99.90;;;;;;5001428;28;19991;-71
2023/01/08 12:33:31;;;;;;;;;;;6.40;99.90;;;;;;5009871;28;19930;-71
2023/01/08 12:36:02;;;;;;;;;;;6.50;99.90;;;;;;5008909;28;19926;-71
2023/01/08 12:38:36;;;;;;;;;;;6.50;99.90;;;;;;5021338;28;20020;-71
2023/01/08 12:41:17;;;;;;;;;;;6.40;99.90;;;;;;5006816;28;19925;-71
2023/01/08 12:43:53;;;;;;;;;;;6.40;99.90;;;;;;5007486;28;19926;-71
2023/01/08 12:46:24;;;;;;;;;;;6.40;99.90;;;;;;5023047;28;19925;-72
2023/01/08 12:48:57;;;;;;;;;;;6.60;99.90;;;;;;4999821;28;19980;-72
2023/01/08 12:51:40;;;;;;;;;;;6.70;99.90;;;;;;5006346;28;20467;-70
2023/01/08 12:54:21;;;;;;;;;;;6.90;99.90;;;;;;4998494;28;19925;-71
2023/01/08 12:56:50;;;;;;;;;;;6.90;99.90;;;;;;5024717;28;19925;-71
2023/01/08 12:59:25;;;;;;;;;;;6.90;99.90;;;;;;5005300;28;20020;-71
2023/01/08 13:02:23;;;;;;;;;;;6.90;99.90;;;;;;5002010;28;20028;-71
2023/01/08 13:04:54;;;;;;;;;;;6.90;99.90;;;;;;4985457;28;19932;-71
2023/01/08 13:08:03;;;;;;;;;;;6.90;99.90;;;;;;5007227;28;19973;-70
2023/01/08 13:10:40;;;;;;;;;;;6.80;99.90;;;;;;4980779;28;19941;-71
2023/01/08 13:13:24;;;;;;;;;;;6.80;99.90;;;;;;5004767;28;19961;-73
2023/01/08 13:16:24;;;;;;;;;;;6.80;99.90;;;;;;5000420;28;19933;-71
2023/01/08 13:18:55;;;;;;;;;;;6.80;99.90;;;;;;4983396;28;20365;-71
2023/01/08 13:21:30;;;;;;;;;;;6.70;99.90;;;;;;4998829;28;19957;-71
2023/01/08 13:24:00;;;;;;;;;;;6.70;99.90;;;;;;5025140;28;19926;-70
2023/01/08 13:26:32;;;;;;;;;;;6.70;99.90;;;;;;5006737;28;20392;-71
2023/01/08 13:29:07;;;;;;;;;;;6.70;99.90;;;;;;5018494;28;20343;-71
2023/01/08 13:31:40;;;;;;;;;;;6.60;99.90;;;;;;5004965;28;19925;-72
2023/01/08 13:34:33;;;;;;;;;;;6.60;99.90;;;;;;5008821;28;19932;-71
2023/01/08 13:37:03;;;;;;;;;;;6.60;99.90;;;;;;5011769;28;20027;-71
2023/01/08 13:39:36;;;;;;;;;;;6.60;99.90;;;;;;5010256;28;19925;-72
2023/01/08 13:42:12;;;;;;;;;;;6.70;99.90;;;;;;5003190;28;20020;-73
2023/01/08 13:44:46;;;;;;;;;;;6.70;99.90;;;;;;5004226;28;19926;-71
2023/01/08 13:47:29;;;;;;;;;;;6.70;99.90;;;;;;5010432;28;19925;-73
2023/01/08 13:50:22;;;;;;;;;;;6.70;99.90;;;;;;5010420;28;19930;-73
2023/01/08 13:52:58;;;;;;;;;;;6.70;99.90;;;;;;4987382;28;19926;-71
2023/01/08 13:55:33;;;;;;;;;;;6.70;99.90;;;;;;5005518;28;19929;-71
2023/01/08 13:58:05;;;;;;;;;;;6.80;99.90;;;;;;5009097;28;19929;-72
2023/01/08 14:00:43;;;;;;;;;;;6.80;99.90;;;;;;5005366;28;19992;-72
2023/01/08 14:03:22;;;;;;;;;;;6.80;99.90;;;;;;5003578;28;19938;-71
2023/01/08 14:05:52;;;;;;;;;;;6.80;99.90;;;;;;5002903;28;19932;-71
2023/01/08 14:08:25;;;;;;;;;;;6.90;99.90;;;;;;5006744;28;19930;-71
2023/01/08 14:11:00;;;;;;;;;;;6.80;99.90;;;;;;5022721;28;19964;-71
2023/01/08 14:13:34;;;;;;;;;;;6.80;99.90;;;;;;5008998;28;19925;-71
2023/01/08 14:16:04;;;;;;;;;;;6.70;99.90;;;;;;5021945;28;21208;-71
2023/01/08 14:18:34;;;;;;;;;;;6.70;99.90;;;;;;5008079;28;19926;-72
2023/01/08 14:21:04;;;;;;;;;;;6.60;99.90;;;;;;5009277;28;20375;-71
2023/01/08 14:23:36;;;;;;;;;;;6.60;99.90;;;;;;5010754;28;19933;-72
2023/01/08 14:26:07;;;;;;;;;;;6.50;99.90;;;;;;5011040;28;20378;-71
2023/01/08 14:28:36;;;;;;;;;;;6.50;99.90;;;;;;5005403;28;19933;-73
2023/01/08 14:31:06;;;;;;;;;;;6.50;99.90;;;;;;5010616;28;20028;-73
2023/01/08 14:33:36;;;;;;;;;;;6.50;99.90;;;;;;5025629;28;20024;-71
2023/01/08 14:36:07;;;;;;;;;;;6.50;99.90;;;;;;5004506;28;20576;-71
2023/01/08 14:38:37;;;;;;;;;;;6.40;99.90;;;;;;5011340;28;20502;-71
2023/01/08 14:41:10;;;;;;;;;;;6.40;99.90;;;;;;5005022;28;19929;-73
2023/01/08 14:43:44;;;;;;;;;;;6.40;99.90;;;;;;5009330;28;19971;-72
2023/01/08 14:46:25;;;;;;;;;;;6.30;99.90;;;;;;5006919;28;20411;-71
2023/01/08 14:48:53;;;;;;;;;;;6.30;99.90;;;;;;4993273;28;20020;-71
2023/01/08 14:51:26;;;;;;;;;;;6.30;99.90;;;;;;5007111;28;19925;-71
2023/01/08 14:54:00;;;;;;;;;;;6.30;99.90;;;;;;5022483;28;20596;-72
2023/01/08 14:56:31;;;;;;;;;;;6.30;99.90;;;;;;4992092;28;20029;-72
2023/01/08 14:59:10;;;;;;;;;;;6.30;99.90;;;;;;5004744;28;19930;-72
2023/01/08 15:01:39;;;;;;;;;;;6.30;99.90;;;;;;5004612;28;19933;-72
2023/01/08 15:04:19;;;;;;;;;;;6.30;99.90;;;;;;5009720;28;19926;-72
2023/01/08 15:06:47;;;;;;;;;;;6.20;99.90;;;;;;5006946;28;19925;-71